Agia Marina — SX5375 — position and weather

sailwx.info

Track history (hours):
 
Tides and Currents Weather Stations Pressure Air Temp Water Temp Dewpoint Dewpoint Depression Visibility Wind Speed Wind Dir Waves Ship Positions

Agia Marina

Last reported at 2014-Dec-21 13:34 UTC. Time now 2014-Dec-21 14:26 UTC.
Position N 38°02' E 023°36'.

Length 59 m; draft 2.5 m.

Type: Cargo ship. MMSI: 237042500.

Date/timePositionNaut miles runAvg speedWind from/ knotsBaromVisibWave heightAir tempDewpointWater temp
2014-Dec-21 13:34N 38°02' E 023°36'0 0.0
2014-Dec-21 12:33N 38°02' E 023°36'0 0.0
2014-Dec-21 11:33N 38°02' E 023°36'0 0.0
2014-Dec-21 10:33N 38°02' E 023°36'0 0.0
2014-Dec-21 09:34N 38°02' E 023°36'0 0.0
2014-Dec-21 08:34N 38°02' E 023°36'0 0.0
2014-Dec-21 07:34N 38°02' E 023°36'0 0.0
2014-Dec-21 06:34N 38°02' E 023°36'0 0.4
2014-Dec-21 05:34N 38°02' E 023°35'5 5.3
2014-Dec-21 04:33N 37°56' E 023°35'5 5.3
2014-Dec-21 03:33N 37°52' E 023°39'6 6.2
2014-Dec-21 02:33N 37°47' E 023°42'6 6.3
2014-Dec-21 01:33N 37°41' E 023°46'6 5.8
2014-Dec-21 00:32N 37°38' E 023°53'15 5.1
2014-Dec-20 21:33N 37°39' E 024°12'20 1.8
2014-Dec-20 10:29N 37°48' E 024°34'7 0.6
2014-Dec-19 21:11N 37°50' E 024°43'4 6.9
2014-Dec-19 20:33N 37°46' E 024°46'12 7.9
2014-Dec-19 19:03N 37°36' E 024°53'3 6.9
2014-Dec-19 18:33N 37°33' E 024°55'7 6.6
2014-Dec-19 17:33N 37°27' E 024°57'1 1.0
2014-Dec-19 16:32N 37°26' E 024°56'0 0.0
2014-Dec-19 15:33N 37°26' E 024°56'5 4.9
2014-Dec-19 14:33N 37°22' E 024°59'7 7.1
2014-Dec-19 13:33N 37°15' E 025°03'6 6.4
2014-Dec-19 12:33N 37°09' E 025°06'5 4.4
2014-Dec-19 11:29N 37°05' E 025°09'0 0.0
2014-Dec-19 10:26N 37°05' E 025°09'0 0.4
2014-Dec-19 09:18N 37°05' E 025°09'1 1.1
2014-Dec-19 08:29N 37°06' E 025°07'5 6.0
2014-Dec-19 07:33N 37°10' E 025°12'6 5.8
2014-Dec-19 06:33N 37°08' E 025°19'3 3.2
2014-Dec-19 05:34N 37°06' E 025°22'0 0.0
2014-Dec-19 04:34N 37°06' E 025°22'0 0.0
2014-Dec-19 03:34N 37°06' E 025°22'0 0.0
2014-Dec-19 02:31N 37°06' E 025°22'0 0.0
2014-Dec-19 01:33N 37°06' E 025°22'0 0.0
2014-Dec-19 00:33N 37°06' E 025°22'0 0.0
2014-Dec-18 23:29N 37°06' E 025°22'0 0.0
2014-Dec-18 22:32N 37°06' E 025°22'0 0.0
2014-Dec-18 21:18N 37°06' E 025°22'0 0.0
2014-Dec-18 20:23N 37°06' E 025°22'0 0.0
2014-Dec-18 19:11N 37°06' E 025°22'0 0.0
2014-Dec-18 18:33N 37°06' E 025°22'2 2.3
2014-Dec-18 17:33N 37°08' E 025°24'7 7.1
2014-Dec-18 16:33N 37°13' E 025°31'6 6.4
2014-Dec-18 15:33N 37°10' E 025°38'7 6.8
2014-Dec-18 14:33N 37°05' E 025°45'6 6.2
2014-Dec-18 13:33N 37°01' E 025°50'7 6.8
2014-Dec-18 12:33N 36°56' E 025°56'3 2.5
2014-Dec-18 11:26N 36°54' E 025°59'2 2.4
2014-Dec-18 10:32N 36°56' E 025°58'9 6.4
2014-Dec-18 09:11N 36°57' E 026°09'7 6.7
2014-Dec-18 08:11N 36°58' E 026°17'5 6.3
2014-Dec-18 07:27N 36°58' E 026°23'27 0.7
2014-Dec-16 15:27N 37°21' E 026°40'20 6.5
2014-Dec-16 12:26N 37°40' E 026°34'13 2.4
2014-Dec-16 07:10N 37°53' E 026°34'86 6.8
2014-Dec-15 18:25N 39°09' E 025°44'70 1.7
2014-Dec-14 02:07N 38°23' E 024°37'28 4.9
2014-Dec-13 20:30N 37°56' E 024°31'5 4.5
2014-Dec-13 19:27N 37°60' E 024°27'0 0.0
2014-Dec-11 21:24N 37°59' E 024°27'19 5.9
2014-Dec-11 18:05N 37°44' E 024°12'3 5.7
2014-Dec-11 17:33N 37°41' E 024°10'6 5.4
2014-Dec-11 16:26N 37°38' E 024°04'12 6.2
2014-Dec-11 14:28N 37°39' E 023°48'  
Track history (hours):
 
Tides and Currents Weather Stations Pressure Air Temp Water Temp Dewpoint Dewpoint Depression Visibility Wind Speed Wind Dir Waves Ship Positions

Agia Marina

Last reported at 2014-Dec-21 13:34 UTC. Time now 2014-Dec-21 14:26 UTC.
Position N 38°02' E 023°36'.

Length 59 m; draft 2.5 m.

Type: Cargo ship. MMSI: 237042500.

Date/timePositionNaut miles runAvg speedWind from/ knotsBaromVisibWave heightAir tempDewpointWater temp
2014-Dec-21 13:34N 38°02' E 023°36'0 0.0
2014-Dec-21 12:33N 38°02' E 023°36'0 0.0
2014-Dec-21 11:33N 38°02' E 023°36'0 0.0
2014-Dec-21 10:33N 38°02' E 023°36'0 0.0
2014-Dec-21 09:34N 38°02' E 023°36'0 0.0
2014-Dec-21 08:34N 38°02' E 023°36'0 0.0
2014-Dec-21 07:34N 38°02' E 023°36'0 0.0
2014-Dec-21 06:34N 38°02' E 023°36'0 0.4
2014-Dec-21 05:34N 38°02' E 023°35'5 5.3
2014-Dec-21 04:33N 37°56' E 023°35'5 5.3
2014-Dec-21 03:33N 37°52' E 023°39'6 6.2
2014-Dec-21 02:33N 37°47' E 023°42'6 6.3
2014-Dec-21 01:33N 37°41' E 023°46'6 5.8
2014-Dec-21 00:32N 37°38' E 023°53'15 5.1
2014-Dec-20 21:33N 37°39' E 024°12'20 1.8
2014-Dec-20 10:29N 37°48' E 024°34'7 0.6
2014-Dec-19 21:11N 37°50' E 024°43'4 6.9
2014-Dec-19 20:33N 37°46' E 024°46'12 7.9
2014-Dec-19 19:03N 37°36' E 024°53'3 6.9
2014-Dec-19 18:33N 37°33' E 024°55'7 6.6
2014-Dec-19 17:33N 37°27' E 024°57'1 1.0
2014-Dec-19 16:32N 37°26' E 024°56'0 0.0
2014-Dec-19 15:33N 37°26' E 024°56'5 4.9
2014-Dec-19 14:33N 37°22' E 024°59'7 7.1
2014-Dec-19 13:33N 37°15' E 025°03'6 6.4
2014-Dec-19 12:33N 37°09' E 025°06'5 4.4
2014-Dec-19 11:29N 37°05' E 025°09'0 0.0
2014-Dec-19 10:26N 37°05' E 025°09'0 0.4
2014-Dec-19 09:18N 37°05' E 025°09'1 1.1
2014-Dec-19 08:29N 37°06' E 025°07'5 6.0
2014-Dec-19 07:33N 37°10' E 025°12'6 5.8
2014-Dec-19 06:33N 37°08' E 025°19'3 3.2
2014-Dec-19 05:34N 37°06' E 025°22'0 0.0
2014-Dec-19 04:34N 37°06' E 025°22'0 0.0
2014-Dec-19 03:34N 37°06' E 025°22'0 0.0
2014-Dec-19 02:31N 37°06' E 025°22'0 0.0
2014-Dec-19 01:33N 37°06' E 025°22'0 0.0
2014-Dec-19 00:33N 37°06' E 025°22'0 0.0
2014-Dec-18 23:29N 37°06' E 025°22'0 0.0
2014-Dec-18 22:32N 37°06' E 025°22'0 0.0
2014-Dec-18 21:18N 37°06' E 025°22'0 0.0
2014-Dec-18 20:23N 37°06' E 025°22'0 0.0
2014-Dec-18 19:11N 37°06' E 025°22'0 0.0
2014-Dec-18 18:33N 37°06' E 025°22'2 2.3
2014-Dec-18 17:33N 37°08' E 025°24'7 7.1
2014-Dec-18 16:33N 37°13' E 025°31'6 6.4
2014-Dec-18 15:33N 37°10' E 025°38'7 6.8
2014-Dec-18 14:33N 37°05' E 025°45'6 6.2
2014-Dec-18 13:33N 37°01' E 025°50'7 6.8
2014-Dec-18 12:33N 36°56' E 025°56'3 2.5
2014-Dec-18 11:26N 36°54' E 025°59'2 2.4
2014-Dec-18 10:32N 36°56' E 025°58'9 6.4
2014-Dec-18 09:11N 36°57' E 026°09'7 6.7
2014-Dec-18 08:11N 36°58' E 026°17'5 6.3
2014-Dec-18 07:27N 36°58' E 026°23'27 0.7
2014-Dec-16 15:27N 37°21' E 026°40'20 6.5
2014-Dec-16 12:26N 37°40' E 026°34'13 2.4
2014-Dec-16 07:10N 37°53' E 026°34'86 6.8
2014-Dec-15 18:25N 39°09' E 025°44'70 1.7
2014-Dec-14 02:07N 38°23' E 024°37'28 4.9
2014-Dec-13 20:30N 37°56' E 024°31'5 4.5
2014-Dec-13 19:27N 37°60' E 024°27'0 0.0
2014-Dec-11 21:24N 37°59' E 024°27'19 5.9
2014-Dec-11 18:05N 37°44' E 024°12'3 5.7
2014-Dec-11 17:33N 37°41' E 024°10'6 5.4
2014-Dec-11 16:26N 37°38' E 024°04'12 6.2
2014-Dec-11 14:28N 37°39' E 023°48'  

Dump ship's entire track history